Time;durP1;ratioP1;P1;durP2;ratioP2;P2;SDS_P1;SDS_P2;PMS_P1;PMS_P2;Temp;Humidity;BMP_temperature;BMP_pressure;BME280_temperature;BME280_humidity;BME280_pressure;Samples;Min_cycle;Max_cycle;Signal;HPM_P1;HPM_P2
2022/01/07 00:00:59;;;;;;;3.70;1.98;;;;;;;6.92;52.51;100281.28;1628221;117;25910;-87
2022/01/07 00:04:36;;;;;;;4.72;2.20;;;;;;;6.90;52.53;100289.01;1685255;114;26037;-86
2022/01/07 00:08:07;;;;;;;3.27;1.98;;;;;;;6.90;52.49;100295.91;1685633;114;26056;-87
2022/01/07 00:12:03;;;;;;;;;;;;;;;;;;;;;
2022/01/07 00:15:33;;;;;;;3.45;2.10;;;;;;;6.85;52.44;100299.22;1640027;117;26060;-86
2022/01/07 00:19:10;;;;;;;;;;;;;;;;;;;;;
2022/01/07 00:22:46;;;;;;;4.65;2.02;;;;;;;6.81;52.42;100292.55;1595105;117;25813;-86
2022/01/07 00:26:11;;;;;;;5.25;2.80;;;;;;;6.79;52.44;100296.81;1611242;117;26115;-89
2022/01/07 00:29:39;;;;;;;3.92;2.75;;;;;;;6.76;52.39;100296.69;1630087;116;25946;-88
2022/01/07 00:33:08;;;;;;;5.05;2.58;;;;;;;6.75;52.39;100303.59;1667078;116;26104;-86
2022/01/07 00:36:33;;;;;;;3.10;2.20;;;;;;;6.73;52.38;100307.81;1672228;116;25914;-89
2022/01/07 00:39:55;;;;;;;3.33;2.55;;;;;;;6.70;52.36;100299.92;1616254;118;26170;-87
2022/01/07 00:43:28;;;;;;;4.30;2.17;;;;;;;6.70;52.32;100308.99;1626367;117;25977;-88
2022/01/07 00:46:52;;;;;;;5.65;2.70;;;;;;;6.69;52.33;100313.71;1672472;113;25819;-87
2022/01/07 00:50:39;;;;;;;4.85;3.00;;;;;;;6.66;52.34;100324.38;1681107;113;26685;-88
2022/01/07 00:54:10;;;;;;;4.25;2.35;;;;;;;6.65;52.31;100325.17;1684114;114;26623;-86
2022/01/07 00:57:40;;;;;;;6.45;3.33;;;;;;;6.62;52.31;100325.97;1682970;114;25847;-87
2022/01/07 01:01:12;;;;;;;5.17;3.22;;;;;;;6.60;52.31;100325.01;1685140;113;25952;-86
2022/01/07 01:04:33;;;;;;;7.22;3.87;;;;;;;6.59;52.30;100324.55;1684998;113;25898;-85
2022/01/07 01:07:58;;;;;;;4.35;2.83;;;;;;;6.57;52.29;100332.24;1684293;113;26126;-85
2022/01/07 01:11:32;;;;;;;6.05;3.22;;;;;;;6.55;52.27;100324.84;1664307;114;25948;-87
2022/01/07 01:14:53;;;;;;;4.50;3.12;;;;;;;6.54;52.28;100333.41;1666327;115;25897;-87
2022/01/07 01:18:29;;;;;;;;;;;;;;;;;;;;;
2022/01/07 01:21:54;;;;;;;6.72;3.55;;;;;;;6.51;52.26;100324.23;1715152;113;25659;-87
2022/01/07 01:25:24;;;;;;;6.67;3.15;;;;;;;6.49;52.24;100319.42;1714398;113;26222;-87
2022/01/07 01:28:55;;;;;;;4.83;2.67;;;;;;;6.47;52.23;100318.46;1713830;113;26128;-87
2022/01/07 01:32:22;;;;;;;6.12;3.45;;;;;;;6.45;52.22;100316.25;1713661;113;26026;-87
2022/01/07 01:36:04;;;;;;;5.30;3.30;;;;;;;6.43;52.23;100320.47;1714471;113;26292;-87
2022/01/07 01:39:31;;;;;;;3.87;2.55;;;;;;;6.43;52.24;100319.59;1720383;113;26008;-87
2022/01/07 01:43:01;;;;;;;4.17;3.17;;;;;;;6.41;52.22;100321.22;1705977;112;25923;-87
2022/01/07 01:49:55;;;;;;;6.28;3.47;;;;;;;6.37;52.21;100324.11;1710261;113;25896;-88
2022/01/07 01:53:19;;;;;;;5.97;3.40;;;;;;;6.35;52.20;100332.25;1711694;114;25979;-86
2022/01/07 01:56:43;;;;;;;4.37;3.33;;;;;;;6.32;52.18;100335.59;1726009;111;26002;-88
2022/01/07 02:00:19;;;;;;;6.45;3.83;;;;;;;6.31;52.16;100339.39;1712955;114;26220;-88
2022/01/07 02:03:43;;;;;;;6.53;3.33;;;;;;;6.27;52.16;100339.69;1710879;114;25861;-87
2022/01/07 02:07:14;;;;;;;6.95;3.83;;;;;;;6.27;52.14;100354.34;1706057;114;25925;-86
2022/01/07 02:10:44;;;;;;;5.87;2.90;;;;;;;6.25;52.12;100348.23;1715015;110;26011;-85
2022/01/07 02:14:24;;;;;;;4.58;3.10;;;;;;;6.23;52.12;100355.05;1736165;109;25904;-84
2022/01/07 02:18:05;;;;;;;5.40;3.27;;;;;;;6.18;52.09;100353.99;1735474;110;26412;-86
2022/01/07 02:21:53;;;;;;;8.68;4.08;;;;;;;6.17;52.11;100363.84;1748067;108;25937;-86
2022/01/07 02:25:24;;;;;;;8.73;3.22;;;;;;;6.17;52.13;100356.08;1742461;110;26492;-85
2022/01/07 02:28:55;;;;;;;7.53;4.17;;;;;;;6.15;52.09;100366.39;1764562;108;26013;-87
2022/01/07 02:32:25;;;;;;;5.05;3.12;;;;;;;6.13;52.08;100354.66;1777195;107;25944;-87
2022/01/07 02:36:01;;;;;;;6.40;3.95;;;;;;;6.10;52.08;100358.83;1794859;108;25859;-86
2022/01/07 02:39:41;;;;;;;4.45;3.02;;;;;;;6.11;52.06;100369.27;1792368;107;26186;-86
2022/01/07 02:43:09;;;;;;;5.15;3.10;;;;;;;6.07;52.03;100364.75;1769527;108;26254;-86
2022/01/07 02:46:54;;;;;;;6.08;3.35;;;;;;;6.07;52.03;100364.75;1801660;105;25948;-85
2022/01/07 02:50:49;;;;;;;5.92;3.25;;;;;;;6.04;51.99;100373.72;1825490;105;26041;-87
2022/01/07 02:54:14;;;;;;;6.80;3.10;;;;;;;6.03;51.98;100377.09;1819748;105;25964;-86
2022/01/07 02:57:57;;;;;;;5.08;3.58;;;;;;;6.00;51.93;100378.27;1837657;102;25856;-87
2022/01/07 03:01:34;;;;;;;5.92;2.98;;;;;;;5.99;51.93;100370.03;1822103;104;26164;-88
2022/01/07 03:05:05;;;;;;;9.85;4.50;;;;;;;5.98;51.93;100378.63;1826302;105;26072;-87
2022/01/07 03:17:07;;;;;;;6.12;3.37;;;;;;;5.94;51.89;100377.13;1772155;109;25957;-86
2022/01/07 03:24:07;;;;;;;5.22;2.85;;;;;;;5.90;51.89;100385.13;1734485;109;26429;-86
2022/01/07 03:27:29;;;;;;;8.08;3.72;;;;;;;5.87;51.86;100387.20;1735625;109;25998;-86
2022/01/07 03:30:55;;;;;;;5.92;3.87;;;;;;;5.86;51.88;100386.71;1737672;109;25938;-86
2022/01/07 03:34:30;;;;;;;7.85;3.87;;;;;;;5.87;51.87;100385.00;1732149;112;26071;-85
2022/01/07 03:37:56;;;;;;;4.37;3.02;;;;;;;5.84;51.87;100383.61;1732583;112;25990;-87
2022/01/07 03:45:24;;;;;;;5.05;3.37;;;;;;;5.82;51.79;100387.41;1685382;112;35385;-86
2022/01/07 03:48:58;;;;;;;4.65;3.27;;;;;;;5.80;51.75;100386.44;1724248;111;25854;-87
2022/01/07 03:56:20;;;;;;;5.87;2.83;;;;;;;5.77;51.73;100394.48;1804296;106;26046;-87
2022/01/07 04:00:36;;;;;;;5.85;3.92;;;;;;;5.76;51.73;100401.78;1812289;107;25780;-86
2022/01/07 04:04:31;;;;;;;4.60;2.92;;;;;;;5.75;51.69;100403.48;1806400;107;26260;-86
2022/01/07 04:20:12;;;;;;;7.00;3.55;;;;;;;5.69;51.60;100391.16;2362973;82;25702;-85
2022/01/07 04:24:04;;;;;;;8.30;3.90;;;;;;;5.71;51.59;100399.42;2354559;82;26080;-87
2022/01/07 04:27:25;;;;;;;7.20;4.22;;;;;;;5.67;51.57;100399.28;2346510;82;25682;-86
2022/01/07 04:31:03;;;;;;;8.43;4.15;;;;;;;5.66;51.55;100395.31;2360251;81;26496;-87
2022/01/07 04:35:06;;;;;;;6.53;3.95;;;;;;;5.64;51.54;100384.92;2376666;81;25668;-86
2022/01/07 04:38:18;;;;;;;8.28;3.65;;;;;;;5.62;51.54;100376.61;2358401;81;25784;-86
2022/01/07 04:41:50;;;;;;;10.32;4.20;;;;;;;5.57;51.52;100372.55;2365130;81;25753;-86
2022/01/07 04:45:34;;;;;;;5.42;3.85;;;;;;;5.58;51.51;100376.89;2370450;83;25743;-86
2022/01/07 04:49:08;;;;;;;7.42;3.75;;;;;;;5.58;51.50;100374.30;2280669;85;25775;-87
2022/01/07 04:52:41;;;;;;;8.23;4.00;;;;;;;5.57;51.47;100370.34;2307963;84;25680;-88
2022/01/07 05:03:37;;;;;;;5.85;3.98;;;;;;;5.51;51.45;100367.11;2290525;85;26090;-86
2022/01/07 05:07:05;;;;;;;8.83;4.72;;;;;;;5.48;51.43;100366.97;2287258;85;25714;-86
2022/01/07 05:10:44;;;;;;;7.15;4.45;;;;;;;5.47;51.36;100366.50;2286833;85;26134;-85
2022/01/07 05:14:16;;;;;;;11.30;4.75;;;;;;;5.45;51.36;100368.12;2196586;89;25489;-87
2022/01/07 05:17:46;;;;;;;6.17;3.62;;;;;;;5.44;51.32;100365.08;2184853;88;25842;-85
2022/01/07 05:21:10;;;;;;;8.98;4.40;;;;;;;5.40;51.29;100361.47;2196130;88;25723;-87
2022/01/07 05:24:46;;;;;;;7.45;4.17;;;;;;;5.41;51.27;100363.64;2233977;87;25757;-86
2022/01/07 05:28:19;;;;;;;7.67;3.85;;;;;;;5.40;51.27;100353.71;2259908;87;25524;-86
2022/01/07 05:31:56;;;;;;;5.83;3.85;;;;;;;5.39;51.25;100346.75;2263686;85;26034;-88
2022/01/07 05:35:35;;;;;;;9.00;4.75;;;;;;;5.39;51.23;100348.05;2275527;86;25590;-86
2022/01/07 05:39:06;;;;;;;11.43;4.15;;;;;;;5.40;51.21;100351.51;2176660;90;25811;-85
2022/01/07 05:42:27;;;;;;;6.42;3.55;;;;;;;5.38;51.17;100353.16;2108314;92;25887;-86
2022/01/07 05:45:54;;;;;;;6.87;4.47;;;;;;;5.38;51.20;100346.70;2051964;94;26124;-86
2022/01/07 05:49:23;;;;;;;7.80;3.37;;;;;;;5.38;51.18;100351.88;2055462;94;25819;-86
2022/01/07 05:52:47;;;;;;;11.65;4.60;;;;;;;5.36;51.18;100347.91;2130511;90;25984;-86
2022/01/07 05:56:16;;;;;;;9.10;4.50;;;;;;;5.36;51.15;100351.78;2143298;90;25782;-86
2022/01/07 05:59:54;;;;;;;9.03;4.60;;;;;;;5.36;51.14;100359.55;2139666;89;25981;-86
2022/01/07 06:03:19;;;;;;;4.85;3.92;;;;;;;5.36;51.14;100369.88;2145979;92;25892;-86
2022/01/07 06:06:42;;;;;;;8.40;4.15;;;;;;;5.35;51.13;100369.83;2143975;92;25715;-86
2022/01/07 06:10:14;;;;;;;9.73;5.15;;;;;;;5.33;51.11;100371.06;2044668;94;25831;-87
2022/01/07 06:13:54;;;;;;;8.75;5.00;;;;;;;5.30;51.06;100370.93;2046197;94;25815;-86
2022/01/07 06:17:18;;;;;;;10.08;4.72;;;;;;;5.30;51.08;100367.05;2083370;93;25701;-86
2022/01/07 06:25:36;;;;;;;8.27;5.07;;;;;;;5.29;51.04;100379.89;2084582;93;25715;-85
2022/01/07 06:29:38;;;;;;;7.65;5.35;;;;;;;5.27;51.00;100381.55;2046468;95;25808;-86
2022/01/07 06:33:14;;;;;;;11.18;5.62;;;;;;;5.24;51.00;100378.41;2053364;94;25848;-87
2022/01/07 06:40:34;;;;;;;11.10;4.35;;;;;;;5.23;50.99;100371.86;2049208;94;26155;-85
2022/01/07 06:43:57;;;;;;;7.50;4.95;;;;;;;5.24;50.95;100369.77;2033366;94;26274;-86
2022/01/07 06:47:21;;;;;;;8.38;4.37;;;;;;;5.23;50.92;100364.10;2038708;94;26283;-88
2022/01/07 06:55:18;;;;;;;;;;;;;;;;;;;;;
2022/01/07 06:58:56;;;;;;;9.95;4.72;;;;;;;5.31;50.87;100371.81;2009777;94;25838;-88
2022/01/07 07:02:17;;;;;;;8.18;4.60;;;;;;;5.31;50.82;100377.86;2083872;94;25323;-86
2022/01/07 07:05:52;;;;;;;11.03;4.67;;;;;;;5.34;50.79;100383.58;2055860;95;25788;-88
2022/01/07 07:09:15;;;;;;;10.25;4.80;;;;;;;5.35;50.74;100386.63;2098720;94;25746;-88
2022/01/07 07:13:10;;;;;;;8.35;4.95;;;;;;;5.39;50.72;100384.23;2035380;96;25845;-88
2022/01/07 07:16:57;;;;;;;11.25;4.53;;;;;;;5.45;50.61;100381.05;2067850;94;25743;-86
2022/01/07 07:20:37;;;;;;;11.65;5.50;;;;;;;5.54;50.58;100393.52;2030726;96;25764;-86
2022/01/07 07:24:20;;;;;;;10.72;4.62;;;;;;;5.64;50.52;100397.85;2040493;95;25735;-87
2022/01/07 07:28:00;;;;;;;7.37;4.08;;;;;;;5.75;50.43;100394.43;2043109;96;25779;-87
2022/01/07 07:31:21;;;;;;;8.58;4.37;;;;;;;5.88;50.31;100389.37;2038535;95;26299;-87
2022/01/07 07:43:00;;;;;;;9.83;4.80;;;;;;;6.20;49.92;100385.98;2185554;89;25830;-87
2022/01/07 07:46:55;;;;;;;8.95;4.65;;;;;;;6.53;49.93;100394.23;2214409;87;25805;-86
2022/01/07 07:50:43;;;;;;;7.25;4.33;;;;;;;6.80;49.49;100390.55;2212161;89;25897;-87
2022/01/07 07:54:39;;;;;;;9.15;4.15;;;;;;;6.84;49.23;100386.83;2214689;88;25930;-87
2022/01/07 07:58:15;;;;;;;8.15;4.50;;;;;;;6.78;49.18;100381.82;2246291;86;25739;-86
2022/01/07 08:05:55;;;;;;;8.98;4.55;;;;;;;6.78;49.11;100377.94;2294554;85;25750;-86
2022/01/07 08:16:54;;;;;;;9.85;5.12;;;;;;;7.47;48.79;100371.45;2274260;84;25643;-86
2022/01/07 08:20:35;;;;;;;8.75;5.30;;;;;;;7.74;48.51;100370.23;2247137;87;25785;-86
2022/01/07 08:24:06;;;;;;;9.18;6.25;;;;;;;9.09;47.86;100370.69;2196648;89;25772;-88
2022/01/07 08:28:00;;;;;;;8.98;5.45;;;;;;;10.04;47.19;100371.99;2179359;90;25886;-86
2022/01/07 08:35:38;;;;;;;7.75;5.10;;;;;;;11.44;45.10;100383.49;2169871;90;25648;-85
2022/01/07 08:39:24;;;;;;;6.75;5.20;;;;;;;11.97;44.41;100393.22;2199013;89;25643;-87
2022/01/07 08:47:19;;;;;;;7.20;5.20;;;;;;;11.98;43.57;100388.03;2229878;87;25788;-86
2022/01/07 08:51:31;;;;;;;7.30;5.10;;;;;;;11.80;43.14;100385.03;2241901;87;25570;-89
2022/01/07 08:55:06;;;;;;;8.48;5.22;;;;;;;11.38;43.21;100385.98;2241612;87;26429;-89
2022/01/07 08:59:30;;;;;;;7.62;5.62;;;;;;;11.20;43.35;100398.20;2219167;87;25715;-90
2022/01/07 09:03:16;;;;;;;9.30;5.67;;;;;;;11.09;43.31;100401.88;2228690;86;25916;-84
2022/01/07 09:07:22;;;;;;;;;;;;;;;;;;;;;
2022/01/07 09:11:49;;;;;;;;;;;;;;;;;;;;;
2022/01/07 09:16:17;;;;;;;9.33;5.58;;;;;;;10.35;43.78;100409.72;2172152;88;25761;-91
2022/01/07 09:20:13;;;;;;;10.45;5.33;;;;;;;10.12;44.02;100403.01;2180832;90;26133;-85
2022/01/07 09:24:27;;;;;;;10.75;6.00;;;;;;;9.92;44.18;100402.09;2206417;89;25902;-86
2022/01/07 09:28:05;;;;;;;10.50;5.65;;;;;;;9.83;44.36;100399.23;2120930;91;25419;-84
2022/01/07 09:31:36;;;;;;;11.53;5.70;;;;;;;9.84;44.46;100397.52;2160958;91;25749;-87
2022/01/07 09:35:08;;;;;;;11.38;5.70;;;;;;;9.99;44.50;100395.33;2144269;89;26244;-82
2022/01/07 09:39:40;;;;;;;11.88;6.55;;;;;;;10.20;44.46;100392.81;2155477;91;25872;-83
2022/01/07 09:43:18;;;;;;;12.73;6.17;;;;;;;10.59;44.29;100393.79;2157649;90;25767;-85
2022/01/07 09:51:01;;;;;;;9.75;6.15;;;;;;;11.42;43.70;100377.34;2001165;97;26067;-85
2022/01/07 09:54:27;;;;;;;10.10;6.30;;;;;;;11.63;43.20;100370.78;2000810;98;25684;-85
2022/01/07 09:58:07;;;;;;;8.38;4.78;;;;;;;11.63;43.08;100378.62;2017489;96;25767;-85
2022/01/07 10:23:29;;;;;;;7.70;5.22;;;;;;;15.47;42.89;100352.04;1958471;98;25898;-89
2022/01/07 10:27:48;;;;;;;13.08;5.10;;;;;;;16.12;41.74;100347.36;1968583;98;25878;-90
2022/01/07 10:35:51;;;;;;;;;;;;;;;;;;;;;
2022/01/07 10:40:16;;;;;;;;;;;;;;;;;;;;;
2022/01/07 10:44:28;;;;;;;10.60;5.62;;;;;;;17.20;40.81;100349.39;1966962;98;26020;-88
2022/01/07 10:52:11;;;;;;;14.45;6.65;;;;;;;17.85;37.37;100346.00;2064149;94;25343;-88
2022/01/07 11:04:52;;;;;;;10.95;6.05;;;;;;;17.06;33.64;100344.63;1990971;95;25872;-88
2022/01/07 11:08:22;;;;;;;11.45;6.22;;;;;;;16.46;33.02;100349.53;2080570;93;25778;-87
2022/01/07 11:12:25;;;;;;;;;;;;;;;;;;;;;
2022/01/07 11:16:26;;;;;;;8.30;4.72;;;;;;;15.62;32.84;100340.23;2081067;92;25899;-88
2022/01/07 11:20:14;;;;;;;10.55;5.55;;;;;;;15.29;32.78;100348.48;2107011;93;25907;-87
2022/01/07 11:23:43;;;;;;;10.23;5.95;;;;;;;14.97;32.85;100341.75;2111191;92;25773;-88
2022/01/07 11:27:30;;;;;;;9.03;6.33;;;;;;;14.77;32.82;100331.15;2111410;92;26521;-87
2022/01/07 11:31:24;;;;;;;9.03;5.55;;;;;;;14.72;32.75;100335.95;2194927;88;25718;-88
2022/01/07 11:35:44;;;;;;;;;;;;;;;;;;;;;
2022/01/07 11:44:08;;;;;;;9.05;5.50;;;;;;;15.03;32.25;100332.61;2202562;86;25839;-88
2022/01/07 11:47:57;;;;;;;10.70;5.25;;;;;;;14.77;32.22;100346.02;2229224;87;26363;-90
2022/01/07 11:52:08;;;;;;;12.10;5.53;;;;;;;14.94;32.23;100343.05;2238629;87;25699;-87
2022/01/07 11:59:39;;;;;;;12.35;5.83;;;;;;;15.46;31.97;100331.91;2151776;90;25835;-88
2022/01/07 12:11:12;;;;;;;8.43;5.50;;;;;;;15.97;31.52;100341.66;1934954;100;26011;-87
2022/01/07 12:20:36;;;;;;;;;;;;;;;;;;;;;
